Terminal Aerodrome Forecast
Issued by NWS

Home | Current Version | Previous Version | Text Only | Print | Product List | Glossary On
Versions: 1 2 3 4 5 6 7 8 9 10 11 12 13 14 15 16 17 18 19 20 21 22 23
000
FTUS41 KBUF 242339
TAFIAG
TAF
KIAG 242339Z 2500/2524 22013G20KT P6SM SKC
     FM250100 22008KT P6SM SKC
     FM251400 22009KT P6SM BKN060
     FM251700 22012G18KT P6SM BKN060
     FM252000 23013G26KT P6SM BKN060
     FM252300 24010KT P6SM BKN060=

USA.gov is the U.S. government's official web portal to all federal, state and local government web resources and services.